sensor_id;sensor_type;location;lat;lon;timestamp;P1;durP1;ratioP1;P2;durP2;ratioP2
3571;SDS011;7958;53.024;12.970;2022-10-17T00:00:15;7.40;;;3.60;;
3571;SDS011;7958;53.024;12.970;2022-10-17T00:02:42;3.77;;;3.43;;
3571;SDS011;7958;53.024;12.970;2022-10-17T00:05:09;5.20;;;3.70;;
3571;SDS011;7958;53.024;12.970;2022-10-17T00:07:37;4.10;;;3.77;;
3571;SDS011;7958;53.024;12.970;2022-10-17T00:10:04;4.20;;;3.73;;
3571;SDS011;7958;53.024;12.970;2022-10-17T00:12:31;4.60;;;4.10;;
3571;SDS011;7958;53.024;12.970;2022-10-17T00:15:01;7.40;;;4.57;;
3571;SDS011;7958;53.024;12.970;2022-10-17T00:17:29;11.37;;;5.23;;
3571;SDS011;7958;53.024;12.970;2022-10-17T00:19:57;9.17;;;4.93;;
3571;SDS011;7958;53.024;12.970;2022-10-17T00:22:23;7.77;;;4.17;;
3571;SDS011;7958;53.024;12.970;2022-10-17T00:24:52;7.90;;;5.40;;
3571;SDS011;7958;53.024;12.970;2022-10-17T00:27:18;5.50;;;4.30;;
3571;SDS011;7958;53.024;12.970;2022-10-17T00:29:46;4.53;;;4.10;;
3571;SDS011;7958;53.024;12.970;2022-10-17T00:32:13;6.77;;;3.63;;
3571;SDS011;7958;53.024;12.970;2022-10-17T00:34:39;4.80;;;3.87;;
3571;SDS011;7958;53.024;12.970;2022-10-17T00:37:06;4.90;;;3.90;;
3571;SDS011;7958;53.024;12.970;2022-10-17T00:39:32;6.10;;;3.70;;
3571;SDS011;7958;53.024;12.970;2022-10-17T00:42:00;4.97;;;3.73;;
3571;SDS011;7958;53.024;12.970;2022-10-17T00:47:31;3.83;;;3.53;;
3571;SDS011;7958;53.024;12.970;2022-10-17T00:49:58;3.50;;;3.20;;
3571;SDS011;7958;53.024;12.970;2022-10-17T00:52:25;4.10;;;3.57;;
3571;SDS011;7958;53.024;12.970;2022-10-17T00:54:55;3.80;;;3.50;;
3571;SDS011;7958;53.024;12.970;2022-10-17T00:57:24;5.27;;;3.80;;
3571;SDS011;7958;53.024;12.970;2022-10-17T00:59:51;12.97;;;5.20;;
3571;SDS011;7958;53.024;12.970;2022-10-17T01:02:20;4.77;;;3.40;;
3571;SDS011;7958;53.024;12.970;2022-10-17T01:04:48;6.10;;;3.93;;
3571;SDS011;7958;53.024;12.970;2022-10-17T01:07:16;4.83;;;3.77;;
3571;SDS011;7958;53.024;12.970;2022-10-17T01:09:43;5.00;;;4.50;;
3571;SDS011;7958;53.024;12.970;2022-10-17T01:12:11;4.50;;;4.10;;
3571;SDS011;7958;53.024;12.970;2022-10-17T01:14:45;7.53;;;4.70;;
3571;SDS011;7958;53.024;12.970;2022-10-17T01:17:17;4.40;;;4.00;;
3571;SDS011;7958;53.024;12.970;2022-10-17T01:22:16;4.40;;;4.00;;
3571;SDS011;7958;53.024;12.970;2022-10-17T01:24:58;4.77;;;4.00;;
3571;SDS011;7958;53.024;12.970;2022-10-17T01:27:36;3.77;;;3.43;;
3571;SDS011;7958;53.024;12.970;2022-10-17T01:30:18;6.23;;;3.90;;
3571;SDS011;7958;53.024;12.970;2022-10-17T01:33:11;6.80;;;3.37;;
3571;SDS011;7958;53.024;12.970;2022-10-17T01:35:41;4.13;;;3.23;;
3571;SDS011;7958;53.024;12.970;2022-10-17T01:38:13;3.80;;;3.13;;
3571;SDS011;7958;53.024;12.970;2022-10-17T01:40:47;3.00;;;2.80;;
3571;SDS011;7958;53.024;12.970;2022-10-17T01:43:17;2.60;;;2.43;;
3571;SDS011;7958;53.024;12.970;2022-10-17T01:45:48;3.90;;;3.50;;
3571;SDS011;7958;53.024;12.970;2022-10-17T01:48:19;2.60;;;2.40;;
3571;SDS011;7958;53.024;12.970;2022-10-17T01:50:49;3.13;;;2.93;;
3571;SDS011;7958;53.024;12.970;2022-10-17T01:53:18;2.80;;;2.50;;
3571;SDS011;7958;53.024;12.970;2022-10-17T01:55:47;2.80;;;2.60;;
3571;SDS011;7958;53.024;12.970;2022-10-17T01:58:15;3.30;;;3.10;;
3571;SDS011;7958;53.024;12.970;2022-10-17T02:00:45;3.10;;;2.90;;
3571;SDS011;7958;53.024;12.970;2022-10-17T02:03:15;3.10;;;2.90;;
3571;SDS011;7958;53.024;12.970;2022-10-17T02:05:44;3.50;;;3.20;;
3571;SDS011;7958;53.024;12.970;2022-10-17T02:08:11;4.17;;;3.83;;
3571;SDS011;7958;53.024;12.970;2022-10-17T02:10:39;3.73;;;3.43;;
3571;SDS011;7958;53.024;12.970;2022-10-17T02:13:08;4.63;;;3.67;;
3571;SDS011;7958;53.024;12.970;2022-10-17T02:15:49;7.20;;;3.53;;
3571;SDS011;7958;53.024;12.970;2022-10-17T02:18:29;4.37;;;3.83;;
3571;SDS011;7958;53.024;12.970;2022-10-17T02:21:07;5.30;;;4.23;;
3571;SDS011;7958;53.024;12.970;2022-10-17T02:23:35;4.00;;;3.60;;
3571;SDS011;7958;53.024;12.970;2022-10-17T02:26:08;5.70;;;4.70;;
3571;SDS011;7958;53.024;12.970;2022-10-17T02:28:38;6.10;;;4.70;;
3571;SDS011;7958;53.024;12.970;2022-10-17T02:31:06;5.40;;;4.30;;
3571;SDS011;7958;53.024;12.970;2022-10-17T02:33:36;12.40;;;4.90;;
3571;SDS011;7958;53.024;12.970;2022-10-17T02:36:08;5.57;;;4.90;;
3571;SDS011;7958;53.024;12.970;2022-10-17T02:38:37;6.87;;;4.33;;
3571;SDS011;7958;53.024;12.970;2022-10-17T02:41:04;5.50;;;4.30;;
3571;SDS011;7958;53.024;12.970;2022-10-17T02:43:33;4.40;;;4.00;;
3571;SDS011;7958;53.024;12.970;2022-10-17T02:46:00;9.60;;;4.70;;
3571;SDS011;7958;53.024;12.970;2022-10-17T02:48:29;4.97;;;4.47;;
3571;SDS011;7958;53.024;12.970;2022-10-17T02:51:03;5.83;;;4.10;;
3571;SDS011;7958;53.024;12.970;2022-10-17T02:53:33;4.60;;;4.20;;
3571;SDS011;7958;53.024;12.970;2022-10-17T02:56:05;5.00;;;4.50;;
3571;SDS011;7958;53.024;12.970;2022-10-17T02:58:34;4.90;;;4.50;;
3571;SDS011;7958;53.024;12.970;2022-10-17T03:01:02;4.97;;;4.37;;
3571;SDS011;7958;53.024;12.970;2022-10-17T03:03:30;5.37;;;4.47;;
3571;SDS011;7958;53.024;12.970;2022-10-17T03:05:57;4.93;;;4.40;;
3571;SDS011;7958;53.024;12.970;2022-10-17T03:08:25;4.80;;;4.27;;
3571;SDS011;7958;53.024;12.970;2022-10-17T03:10:54;5.83;;;5.07;;
3571;SDS011;7958;53.024;12.970;2022-10-17T03:13:20;7.53;;;5.30;;
3571;SDS011;7958;53.024;12.970;2022-10-17T03:15:47;6.77;;;4.33;;
3571;SDS011;7958;53.024;12.970;2022-10-17T03:18:13;10.57;;;4.20;;
3571;SDS011;7958;53.024;12.970;2022-10-17T03:20:40;6.03;;;4.60;;
3571;SDS011;7958;53.024;12.970;2022-10-17T03:23:06;4.77;;;4.23;;
3571;SDS011;7958;53.024;12.970;2022-10-17T03:25:34;8.63;;;5.40;;
3571;SDS011;7958;53.024;12.970;2022-10-17T03:28:01;6.63;;;6.03;;
3571;SDS011;7958;53.024;12.970;2022-10-17T03:30:29;11.50;;;5.90;;
3571;SDS011;7958;53.024;12.970;2022-10-17T03:32:56;5.10;;;4.60;;
3571;SDS011;7958;53.024;12.970;2022-10-17T03:35:23;5.90;;;5.30;;
3571;SDS011;7958;53.024;12.970;2022-10-17T03:37:50;7.77;;;5.33;;
3571;SDS011;7958;53.024;12.970;2022-10-17T03:40:16;5.90;;;4.53;;
3571;SDS011;7958;53.024;12.970;2022-10-17T03:42:44;4.90;;;4.30;;
3571;SDS011;7958;53.024;12.970;2022-10-17T03:45:10;6.30;;;4.40;;
3571;SDS011;7958;53.024;12.970;2022-10-17T03:47:37;5.83;;;4.17;;
3571;SDS011;7958;53.024;12.970;2022-10-17T03:50:04;4.50;;;4.00;;
3571;SDS011;7958;53.024;12.970;2022-10-17T03:52:31;4.50;;;4.10;;
3571;SDS011;7958;53.024;12.970;2022-10-17T03:54:58;8.87;;;4.37;;
3571;SDS011;7958;53.024;12.970;2022-10-17T03:57:24;4.00;;;3.57;;
3571;SDS011;7958;53.024;12.970;2022-10-17T03:59:52;4.77;;;4.13;;
3571;SDS011;7958;53.024;12.970;2022-10-17T04:02:19;4.30;;;3.90;;
3571;SDS011;7958;53.024;12.970;2022-10-17T04:04:46;5.33;;;4.67;;
3571;SDS011;7958;53.024;12.970;2022-10-17T04:07:14;3.83;;;3.53;;
3571;SDS011;7958;53.024;12.970;2022-10-17T04:09:41;4.20;;;3.90;;
3571;SDS011;7958;53.024;12.970;2022-10-17T04:12:08;13.00;;;4.67;;
3571;SDS011;7958;53.024;12.970;2022-10-17T04:14:35;4.70;;;4.30;;
3571;SDS011;7958;53.024;12.970;2022-10-17T04:17:03;9.83;;;4.37;;
3571;SDS011;7958;53.024;12.970;2022-10-17T04:19:30;4.53;;;4.10;;
3571;SDS011;7958;53.024;12.970;2022-10-17T04:21:57;6.23;;;4.90;;
3571;SDS011;7958;53.024;12.970;2022-10-17T04:24:24;5.17;;;4.20;;
3571;SDS011;7958;53.024;12.970;2022-10-17T04:26:50;4.10;;;3.80;;
3571;SDS011;7958;53.024;12.970;2022-10-17T04:29:19;5.70;;;5.10;;
3571;SDS011;7958;53.024;12.970;2022-10-17T04:31:46;5.20;;;4.70;;
3571;SDS011;7958;53.024;12.970;2022-10-17T04:34:15;6.53;;;5.80;;
3571;SDS011;7958;53.024;12.970;2022-10-17T04:36:41;5.87;;;5.27;;
3571;SDS011;7958;53.024;12.970;2022-10-17T04:39:08;5.47;;;4.97;;
3571;SDS011;7958;53.024;12.970;2022-10-17T04:41:34;7.87;;;4.80;;
3571;SDS011;7958;53.024;12.970;2022-10-17T04:44:01;5.37;;;4.83;;
3571;SDS011;7958;53.024;12.970;2022-10-17T04:46:28;7.97;;;6.00;;
3571;SDS011;7958;53.024;12.970;2022-10-17T04:48:54;8.57;;;6.80;;
3571;SDS011;7958;53.024;12.970;2022-10-17T04:51:22;9.27;;;6.67;;
3571;SDS011;7958;53.024;12.970;2022-10-17T04:53:49;10.20;;;6.83;;
3571;SDS011;7958;53.024;12.970;2022-10-17T04:56:16;11.33;;;6.60;;
3571;SDS011;7958;53.024;12.970;2022-10-17T04:58:45;6.03;;;5.43;;
3571;SDS011;7958;53.024;12.970;2022-10-17T05:01:12;6.50;;;5.43;;
3571;SDS011;7958;53.024;12.970;2022-10-17T05:03:40;6.70;;;4.90;;
3571;SDS011;7958;53.024;12.970;2022-10-17T05:06:08;7.23;;;5.80;;
3571;SDS011;7958;53.024;12.970;2022-10-17T05:08:37;5.10;;;4.60;;
3571;SDS011;7958;53.024;12.970;2022-10-17T05:11:04;6.70;;;4.50;;
3571;SDS011;7958;53.024;12.970;2022-10-17T05:13:31;4.83;;;4.43;;
3571;SDS011;7958;53.024;12.970;2022-10-17T05:15:58;6.40;;;4.50;;
3571;SDS011;7958;53.024;12.970;2022-10-17T05:18:25;4.87;;;4.47;;
3571;SDS011;7958;53.024;12.970;2022-10-17T05:20:51;7.07;;;4.70;;
3571;SDS011;7958;53.024;12.970;2022-10-17T05:23:18;5.60;;;4.27;;
3571;SDS011;7958;53.024;12.970;2022-10-17T05:25:46;5.30;;;4.30;;
3571;SDS011;7958;53.024;12.970;2022-10-17T05:28:12;3.67;;;3.37;;
3571;SDS011;7958;53.024;12.970;2022-10-17T05:30:39;3.97;;;3.27;;
3571;SDS011;7958;53.024;12.970;2022-10-17T05:33:05;3.60;;;3.30;;
3571;SDS011;7958;53.024;12.970;2022-10-17T05:35:33;3.33;;;3.10;;
3571;SDS011;7958;53.024;12.970;2022-10-17T05:37:59;3.50;;;3.10;;
3571;SDS011;7958;53.024;12.970;2022-10-17T05:40:26;12.17;;;3.53;;
3571;SDS011;7958;53.024;12.970;2022-10-17T05:42:54;7.67;;;4.00;;
3571;SDS011;7958;53.024;12.970;2022-10-17T05:45:20;3.20;;;3.00;;
3571;SDS011;7958;53.024;12.970;2022-10-17T05:47:47;4.40;;;3.07;;
3571;SDS011;7958;53.024;12.970;2022-10-17T05:50:13;3.57;;;3.33;;
3571;SDS011;7958;53.024;12.970;2022-10-17T05:52:40;3.73;;;3.43;;
3571;SDS011;7958;53.024;12.970;2022-10-17T05:55:08;5.70;;;4.30;;
3571;SDS011;7958;53.024;12.970;2022-10-17T05:57:34;3.83;;;3.60;;
3571;SDS011;7958;53.024;12.970;2022-10-17T06:00:03;4.50;;;3.80;;
3571;SDS011;7958;53.024;12.970;2022-10-17T06:02:34;3.90;;;3.57;;
3571;SDS011;7958;53.024;12.970;2022-10-17T06:05:02;11.23;;;4.10;;
3571;SDS011;7958;53.024;12.970;2022-10-17T06:07:29;4.13;;;3.70;;
3571;SDS011;7958;53.024;12.970;2022-10-17T06:09:55;4.33;;;3.93;;
3571;SDS011;7958;53.024;12.970;2022-10-17T06:12:23;5.30;;;4.33;;
3571;SDS011;7958;53.024;12.970;2022-10-17T06:14:50;13.00;;;4.43;;
3571;SDS011;7958;53.024;12.970;2022-10-17T06:17:20;6.67;;;4.43;;
3571;SDS011;7958;53.024;12.970;2022-10-17T06:19:47;5.50;;;3.97;;
3571;SDS011;7958;53.024;12.970;2022-10-17T06:22:13;7.53;;;4.00;;
3571;SDS011;7958;53.024;12.970;2022-10-17T06:24:40;5.50;;;3.70;;
3571;SDS011;7958;53.024;12.970;2022-10-17T06:27:07;3.67;;;3.30;;
3571;SDS011;7958;53.024;12.970;2022-10-17T06:29:34;7.43;;;3.60;;
3571;SDS011;7958;53.024;12.970;2022-10-17T06:32:02;7.13;;;3.50;;
3571;SDS011;7958;53.024;12.970;2022-10-17T06:34:37;4.00;;;3.67;;
3571;SDS011;7958;53.024;12.970;2022-10-17T06:37:04;3.97;;;3.67;;
3571;SDS011;7958;53.024;12.970;2022-10-17T06:39:33;4.87;;;3.40;;
3571;SDS011;7958;53.024;12.970;2022-10-17T06:41:59;10.77;;;3.43;;
3571;SDS011;7958;53.024;12.970;2022-10-17T06:44:26;4.13;;;3.73;;
3571;SDS011;7958;53.024;12.970;2022-10-17T06:46:55;4.83;;;3.97;;
3571;SDS011;7958;53.024;12.970;2022-10-17T06:49:22;4.47;;;4.07;;
3571;SDS011;7958;53.024;12.970;2022-10-17T06:51:50;4.80;;;3.80;;
3571;SDS011;7958;53.024;12.970;2022-10-17T06:54:17;5.60;;;4.17;;
3571;SDS011;7958;53.024;12.970;2022-10-17T06:56:43;4.30;;;3.93;;
3571;SDS011;7958;53.024;12.970;2022-10-17T06:59:10;5.83;;;3.90;;
3571;SDS011;7958;53.024;12.970;2022-10-17T07:01:36;4.17;;;3.87;;
3571;SDS011;7958;53.024;12.970;2022-10-17T07:04:03;3.87;;;3.57;;
3571;SDS011;7958;53.024;12.970;2022-10-17T07:06:30;3.73;;;3.43;;
3571;SDS011;7958;53.024;12.970;2022-10-17T07:08:59;4.67;;;4.13;;
3571;SDS011;7958;53.024;12.970;2022-10-17T07:11:27;4.50;;;3.70;;
3571;SDS011;7958;53.024;12.970;2022-10-17T07:13:53;3.80;;;3.40;;
3571;SDS011;7958;53.024;12.970;2022-10-17T07:16:20;3.93;;;3.63;;
3571;SDS011;7958;53.024;12.970;2022-10-17T07:18:47;5.60;;;3.57;;
3571;SDS011;7958;53.024;12.970;2022-10-17T07:21:14;5.27;;;3.40;;
3571;SDS011;7958;53.024;12.970;2022-10-17T07:23:41;3.43;;;3.23;;
3571;SDS011;7958;53.024;12.970;2022-10-17T07:26:10;3.90;;;3.60;;
3571;SDS011;7958;53.024;12.970;2022-10-17T07:28:40;6.57;;;3.43;;
3571;SDS011;7958;53.024;12.970;2022-10-17T07:31:09;5.90;;;3.33;;
3571;SDS011;7958;53.024;12.970;2022-10-17T07:33:37;4.90;;;3.40;;
3571;SDS011;7958;53.024;12.970;2022-10-17T07:36:04;3.90;;;3.20;;
3571;SDS011;7958;53.024;12.970;2022-10-17T07:38:32;4.67;;;3.17;;
3571;SDS011;7958;53.024;12.970;2022-10-17T07:41:00;4.90;;;3.00;;
3571;SDS011;7958;53.024;12.970;2022-10-17T07:43:35;3.80;;;3.40;;
3571;SDS011;7958;53.024;12.970;2022-10-17T07:46:08;3.77;;;3.13;;
3571;SDS011;7958;53.024;12.970;2022-10-17T07:48:38;2.80;;;2.60;;
3571;SDS011;7958;53.024;12.970;2022-10-17T07:51:05;3.83;;;3.27;;
3571;SDS011;7958;53.024;12.970;2022-10-17T07:53:33;4.10;;;3.63;;
3571;SDS011;7958;53.024;12.970;2022-10-17T07:56:02;2.93;;;2.63;;
3571;SDS011;7958;53.024;12.970;2022-10-17T07:58:36;3.20;;;3.00;;
3571;SDS011;7958;53.024;12.970;2022-10-17T08:01:04;3.00;;;2.80;;
3571;SDS011;7958;53.024;12.970;2022-10-17T08:03:34;3.50;;;3.20;;
3571;SDS011;7958;53.024;12.970;2022-10-17T08:06:01;3.80;;;3.43;;
3571;SDS011;7958;53.024;12.970;2022-10-17T08:08:28;4.00;;;3.00;;
3571;SDS011;7958;53.024;12.970;2022-10-17T08:10:59;3.40;;;3.10;;
3571;SDS011;7958;53.024;12.970;2022-10-17T08:13:27;3.73;;;2.90;;
3571;SDS011;7958;53.024;12.970;2022-10-17T08:15:57;4.27;;;2.80;;
3571;SDS011;7958;53.024;12.970;2022-10-17T08:18:24;3.57;;;3.20;;
3571;SDS011;7958;53.024;12.970;2022-10-17T08:20:51;2.97;;;2.77;;
3571;SDS011;7958;53.024;12.970;2022-10-17T08:23:18;3.33;;;3.03;;
3571;SDS011;7958;53.024;12.970;2022-10-17T08:25:52;3.30;;;3.03;;
3571;SDS011;7958;53.024;12.970;2022-10-17T08:28:21;3.63;;;3.33;;
3571;SDS011;7958;53.024;12.970;2022-10-17T08:30:50;2.93;;;2.40;;
3571;SDS011;7958;53.024;12.970;2022-10-17T08:33:17;4.03;;;2.70;;
3571;SDS011;7958;53.024;12.970;2022-10-17T08:35:44;3.40;;;3.10;;
3571;SDS011;7958;53.024;12.970;2022-10-17T08:38:11;2.50;;;2.40;;
3571;SDS011;7958;53.024;12.970;2022-10-17T08:40:37;5.90;;;3.23;;
3571;SDS011;7958;53.024;12.970;2022-10-17T08:43:13;3.57;;;2.97;;
3571;SDS011;7958;53.024;12.970;2022-10-17T08:45:46;2.90;;;2.70;;
3571;SDS011;7958;53.024;12.970;2022-10-17T08:48:19;6.87;;;3.47;;
3571;SDS011;7958;53.024;12.970;2022-10-17T08:50:49;3.60;;;3.23;;
3571;SDS011;7958;53.024;12.970;2022-10-17T08:53:18;4.23;;;3.10;;
3571;SDS011;7958;53.024;12.970;2022-10-17T08:55:46;4.50;;;2.30;;
3571;SDS011;7958;53.024;12.970;2022-10-17T08:58:14;4.70;;;2.87;;
3571;SDS011;7958;53.024;12.970;2022-10-17T09:00:45;2.47;;;2.27;;
3571;SDS011;7958;53.024;12.970;2022-10-17T09:03:20;2.87;;;2.67;;
3571;SDS011;7958;53.024;12.970;2022-10-17T09:05:52;8.90;;;3.23;;
3571;SDS011;7958;53.024;12.970;2022-10-17T09:08:26;2.80;;;2.60;;
3571;SDS011;7958;53.024;12.970;2022-10-17T09:10:59;2.87;;;2.67;;
3571;SDS011;7958;53.024;12.970;2022-10-17T09:13:31;3.27;;;2.97;;
3571;SDS011;7958;53.024;12.970;2022-10-17T09:16:08;2.80;;;2.60;;
3571;SDS011;7958;53.024;12.970;2022-10-17T09:18:44;4.20;;;2.20;;
3571;SDS011;7958;53.024;12.970;2022-10-17T09:21:16;2.80;;;2.47;;
3571;SDS011;7958;53.024;12.970;2022-10-17T09:23:46;3.20;;;2.40;;
3571;SDS011;7958;53.024;12.970;2022-10-17T09:26:15;2.80;;;2.20;;
3571;SDS011;7958;53.024;12.970;2022-10-17T09:28:42;3.03;;;2.50;;
3571;SDS011;7958;53.024;12.970;2022-10-17T09:31:11;3.30;;;2.60;;
3571;SDS011;7958;53.024;12.970;2022-10-17T09:33:40;3.47;;;2.30;;
3571;SDS011;7958;53.024;12.970;2022-10-17T09:36:10;4.90;;;2.17;;
3571;SDS011;7958;53.024;12.970;2022-10-17T09:38:39;2.23;;;2.03;;
3571;SDS011;7958;53.024;12.970;2022-10-17T09:41:20;5.93;;;2.90;;
3571;SDS011;7958;53.024;12.970;2022-10-17T09:43:50;2.33;;;2.23;;
3571;SDS011;7958;53.024;12.970;2022-10-17T09:46:19;2.70;;;2.50;;
3571;SDS011;7958;53.024;12.970;2022-10-17T09:48:49;5.33;;;2.63;;
3571;SDS011;7958;53.024;12.970;2022-10-17T09:51:18;4.90;;;2.80;;
3571;SDS011;7958;53.024;12.970;2022-10-17T09:53:46;3.50;;;2.30;;
3571;SDS011;7958;53.024;12.970;2022-10-17T09:56:16;3.93;;;3.03;;
3571;SDS011;7958;53.024;12.970;2022-10-17T09:58:44;4.37;;;2.80;;
3571;SDS011;7958;53.024;12.970;2022-10-17T10:01:17;2.53;;;2.30;;
3571;SDS011;7958;53.024;12.970;2022-10-17T10:03:45;5.07;;;2.60;;
3571;SDS011;7958;53.024;12.970;2022-10-17T10:06:13;3.33;;;2.80;;
3571;SDS011;7958;53.024;12.970;2022-10-17T10:11:43;3.00;;;2.17;;
3571;SDS011;7958;53.024;12.970;2022-10-17T10:14:14;2.60;;;2.40;;
3571;SDS011;7958;53.024;12.970;2022-10-17T10:16:45;2.40;;;2.20;;
3571;SDS011;7958;53.024;12.970;2022-10-17T10:19:18;2.97;;;2.40;;
3571;SDS011;7958;53.024;12.970;2022-10-17T10:21:53;5.47;;;2.80;;
3571;SDS011;7958;53.024;12.970;2022-10-17T10:24:22;3.00;;;2.10;;
3571;SDS011;7958;53.024;12.970;2022-10-17T10:26:50;3.97;;;2.67;;
3571;SDS011;7958;53.024;12.970;2022-10-17T10:29:20;6.57;;;2.70;;
3571;SDS011;7958;53.024;12.970;2022-10-17T10:31:49;2.33;;;2.10;;
3571;SDS011;7958;53.024;12.970;2022-10-17T10:34:17;3.23;;;2.60;;
3571;SDS011;7958;53.024;12.970;2022-10-17T10:36:48;2.87;;;2.67;;
3571;SDS011;7958;53.024;12.970;2022-10-17T10:39:31;2.80;;;2.30;;
3571;SDS011;7958;53.024;12.970;2022-10-17T10:42:16;3.23;;;2.93;;
3571;SDS011;7958;53.024;12.970;2022-10-17T10:44:45;3.00;;;2.70;;
3571;SDS011;7958;53.024;12.970;2022-10-17T10:47:17;4.60;;;2.50;;
3571;SDS011;7958;53.024;12.970;2022-10-17T10:49:46;2.47;;;2.27;;
3571;SDS011;7958;53.024;12.970;2022-10-17T10:52:16;3.00;;;2.63;;
3571;SDS011;7958;53.024;12.970;2022-10-17T10:54:52;5.93;;;3.00;;
3571;SDS011;7958;53.024;12.970;2022-10-17T10:57:22;4.03;;;2.50;;
3571;SDS011;7958;53.024;12.970;2022-10-17T10:59:53;2.30;;;2.10;;
3571;SDS011;7958;53.024;12.970;2022-10-17T11:02:23;3.20;;;2.90;;
3571;SDS011;7958;53.024;12.970;2022-10-17T11:04:54;5.93;;;2.70;;
3571;SDS011;7958;53.024;12.970;2022-10-17T11:07:24;3.17;;;2.87;;
3571;SDS011;7958;53.024;12.970;2022-10-17T11:09:55;2.43;;;2.23;;
3571;SDS011;7958;53.024;12.970;2022-10-17T11:12:26;5.93;;;2.33;;
3571;SDS011;7958;53.024;12.970;2022-10-17T11:14:56;3.40;;;2.77;;
3571;SDS011;7958;53.024;12.970;2022-10-17T11:17:29;4.57;;;2.40;;
3571;SDS011;7958;53.024;12.970;2022-10-17T11:20:02;5.80;;;2.93;;
3571;SDS011;7958;53.024;12.970;2022-10-17T11:22:37;2.60;;;2.40;;
3571;SDS011;7958;53.024;12.970;2022-10-17T11:25:12;14.33;;;3.00;;
3571;SDS011;7958;53.024;12.970;2022-10-17T11:27:44;4.07;;;2.73;;
3571;SDS011;7958;53.024;12.970;2022-10-17T11:30:11;2.80;;;2.60;;
3571;SDS011;7958;53.024;12.970;2022-10-17T11:32:40;3.30;;;3.00;;
3571;SDS011;7958;53.024;12.970;2022-10-17T11:35:14;2.43;;;2.23;;
3571;SDS011;7958;53.024;12.970;2022-10-17T11:37:45;2.40;;;2.20;;
3571;SDS011;7958;53.024;12.970;2022-10-17T11:40:17;2.70;;;2.50;;
3571;SDS011;7958;53.024;12.970;2022-10-17T11:42:49;3.27;;;2.67;;
3571;SDS011;7958;53.024;12.970;2022-10-17T11:45:18;2.60;;;2.30;;
3571;SDS011;7958;53.024;12.970;2022-10-17T11:47:47;6.20;;;2.80;;
3571;SDS011;7958;53.024;12.970;2022-10-17T11:50:17;2.97;;;2.67;;
3571;SDS011;7958;53.024;12.970;2022-10-17T11:52:47;2.50;;;2.13;;
3571;SDS011;7958;53.024;12.970;2022-10-17T11:55:18;4.23;;;2.10;;
3571;SDS011;7958;53.024;12.970;2022-10-17T11:57:50;9.07;;;2.63;;
3571;SDS011;7958;53.024;12.970;2022-10-17T12:00:22;3.10;;;2.70;;
3571;SDS011;7958;53.024;12.970;2022-10-17T12:02:56;5.87;;;2.60;;
3571;SDS011;7958;53.024;12.970;2022-10-17T12:05:32;2.70;;;2.50;;
3571;SDS011;7958;53.024;12.970;2022-10-17T12:08:04;3.03;;;2.73;;
3571;SDS011;7958;53.024;12.970;2022-10-17T12:10:41;3.50;;;2.60;;
3571;SDS011;7958;53.024;12.970;2022-10-17T12:19:18;3.10;;;2.40;;
3571;SDS011;7958;53.024;12.970;2022-10-17T12:21:58;3.30;;;2.50;;
3571;SDS011;7958;53.024;12.970;2022-10-17T12:24:41;3.17;;;2.87;;
3571;SDS011;7958;53.024;12.970;2022-10-17T12:30:15;2.93;;;2.33;;
3571;SDS011;7958;53.024;12.970;2022-10-17T12:35:46;3.43;;;2.70;;
3571;SDS011;7958;53.024;12.970;2022-10-17T12:38:14;6.10;;;2.63;;
3571;SDS011;7958;53.024;12.970;2022-10-17T12:40:54;2.60;;;2.40;;
3571;SDS011;7958;53.024;12.970;2022-10-17T12:43:36;3.50;;;2.30;;
3571;SDS011;7958;53.024;12.970;2022-10-17T12:46:10;5.00;;;2.93;;
3571;SDS011;7958;53.024;12.970;2022-10-17T12:54:46;4.90;;;3.23;;
3571;SDS011;7958;53.024;12.970;2022-10-17T12:57:17;4.27;;;2.80;;
3571;SDS011;7958;53.024;12.970;2022-10-17T12:59:47;3.30;;;3.00;;
3571;SDS011;7958;53.024;12.970;2022-10-17T13:02:16;4.67;;;2.70;;
3571;SDS011;7958;53.024;12.970;2022-10-17T13:04:44;3.60;;;2.77;;
3571;SDS011;7958;53.024;12.970;2022-10-17T13:07:12;3.40;;;2.30;;
3571;SDS011;7958;53.024;12.970;2022-10-17T13:09:43;3.10;;;2.80;;
3571;SDS011;7958;53.024;12.970;2022-10-17T13:12:11;4.10;;;2.80;;
3571;SDS011;7958;53.024;12.970;2022-10-17T13:14:39;4.03;;;2.67;;
3571;SDS011;7958;53.024;12.970;2022-10-17T13:17:23;4.00;;;2.53;;
3571;SDS011;7958;53.024;12.970;2022-10-17T13:19:51;5.47;;;2.83;;
3571;SDS011;7958;53.024;12.970;2022-10-17T13:22:19;2.87;;;2.67;;
3571;SDS011;7958;53.024;12.970;2022-10-17T13:24:47;8.20;;;2.90;;
3571;SDS011;7958;53.024;12.970;2022-10-17T13:27:21;2.37;;;2.17;;
3571;SDS011;7958;53.024;12.970;2022-10-17T13:29:49;2.90;;;2.60;;
3571;SDS011;7958;53.024;12.970;2022-10-17T13:32:18;3.90;;;2.57;;
3571;SDS011;7958;53.024;12.970;2022-10-17T13:35:05;2.60;;;2.30;;
3571;SDS011;7958;53.024;12.970;2022-10-17T13:37:33;2.70;;;2.50;;
3571;SDS011;7958;53.024;12.970;2022-10-17T13:40:00;5.30;;;2.50;;
3571;SDS011;7958;53.024;12.970;2022-10-17T13:42:30;6.37;;;3.00;;
3571;SDS011;7958;53.024;12.970;2022-10-17T13:45:02;7.90;;;2.83;;
3571;SDS011;7958;53.024;12.970;2022-10-17T13:47:35;6.67;;;2.87;;
3571;SDS011;7958;53.024;12.970;2022-10-17T13:50:02;3.87;;;2.70;;
3571;SDS011;7958;53.024;12.970;2022-10-17T13:52:31;3.37;;;2.50;;
3571;SDS011;7958;53.024;12.970;2022-10-17T13:55:05;2.97;;;2.77;;
3571;SDS011;7958;53.024;12.970;2022-10-17T13:57:32;3.57;;;2.27;;
3571;SDS011;7958;53.024;12.970;2022-10-17T14:00:05;2.97;;;2.73;;
3571;SDS011;7958;53.024;12.970;2022-10-17T14:02:40;3.47;;;2.40;;
3571;SDS011;7958;53.024;12.970;2022-10-17T14:05:10;3.63;;;2.60;;
3571;SDS011;7958;53.024;12.970;2022-10-17T14:07:38;4.23;;;2.87;;
3571;SDS011;7958;53.024;12.970;2022-10-17T14:10:13;5.90;;;2.93;;
3571;SDS011;7958;53.024;12.970;2022-10-17T14:12:43;3.00;;;2.57;;
3571;SDS011;7958;53.024;12.970;2022-10-17T14:15:12;4.53;;;3.40;;
3571;SDS011;7958;53.024;12.970;2022-10-17T14:17:41;3.43;;;2.73;;
3571;SDS011;7958;53.024;12.970;2022-10-17T14:20:15;4.10;;;3.10;;
3571;SDS011;7958;53.024;12.970;2022-10-17T14:22:43;2.80;;;2.60;;
3571;SDS011;7958;53.024;12.970;2022-10-17T14:25:25;6.97;;;3.17;;
3571;SDS011;7958;53.024;12.970;2022-10-17T14:27:54;3.87;;;2.60;;
3571;SDS011;7958;53.024;12.970;2022-10-17T14:30:30;3.57;;;2.50;;
3571;SDS011;7958;53.024;12.970;2022-10-17T14:33:01;3.80;;;2.37;;
3571;SDS011;7958;53.024;12.970;2022-10-17T14:35:28;10.03;;;2.50;;
3571;SDS011;7958;53.024;12.970;2022-10-17T14:37:59;4.37;;;2.60;;
3571;SDS011;7958;53.024;12.970;2022-10-17T14:40:28;2.10;;;2.00;;
3571;SDS011;7958;53.024;12.970;2022-10-17T14:42:57;9.43;;;2.90;;
3571;SDS011;7958;53.024;12.970;2022-10-17T14:45:26;3.37;;;2.23;;
3571;SDS011;7958;53.024;12.970;2022-10-17T14:47:55;6.80;;;2.37;;
3571;SDS011;7958;53.024;12.970;2022-10-17T14:50:27;5.27;;;2.30;;
3571;SDS011;7958;53.024;12.970;2022-10-17T14:52:58;7.10;;;2.50;;
3571;SDS011;7958;53.024;12.970;2022-10-17T14:55:26;3.50;;;2.60;;
3571;SDS011;7958;53.024;12.970;2022-10-17T14:57:54;2.50;;;2.30;;
3571;SDS011;7958;53.024;12.970;2022-10-17T15:00:21;6.80;;;2.80;;
3571;SDS011;7958;53.024;12.970;2022-10-17T15:02:48;4.07;;;2.07;;
3571;SDS011;7958;53.024;12.970;2022-10-17T15:05:16;4.30;;;2.27;;
3571;SDS011;7958;53.024;12.970;2022-10-17T15:07:45;6.37;;;2.60;;
3571;SDS011;7958;53.024;12.970;2022-10-17T15:10:26;4.60;;;2.17;;
3571;SDS011;7958;53.024;12.970;2022-10-17T15:12:56;3.50;;;2.50;;
3571;SDS011;7958;53.024;12.970;2022-10-17T15:15:24;6.13;;;2.23;;
3571;SDS011;7958;53.024;12.970;2022-10-17T15:17:50;9.67;;;2.77;;
3571;SDS011;7958;53.024;12.970;2022-10-17T15:20:17;6.13;;;2.43;;
3571;SDS011;7958;53.024;12.970;2022-10-17T15:22:46;5.37;;;2.03;;
3571;SDS011;7958;53.024;12.970;2022-10-17T15:25:12;3.30;;;2.20;;
3571;SDS011;7958;53.024;12.970;2022-10-17T15:27:39;4.10;;;2.37;;
3571;SDS011;7958;53.024;12.970;2022-10-17T15:30:08;4.57;;;2.70;;
3571;SDS011;7958;53.024;12.970;2022-10-17T15:32:40;3.93;;;2.30;;
3571;SDS011;7958;53.024;12.970;2022-10-17T15:35:07;4.10;;;2.33;;
3571;SDS011;7958;53.024;12.970;2022-10-17T15:37:34;3.30;;;2.90;;
3571;SDS011;7958;53.024;12.970;2022-10-17T15:40:02;3.53;;;2.57;;